James M Cox Dayton International Airport
KDAY : now visible

Airfield :











YOU CAN JOIN US ON...

 
LOGIN :

Register | Disclaimer

   EN    FR    IT 

 









Legend :    VFR   Marginal VFR   IFR   Intensive IFR   Very Intensive IFR
Visi :
Ceiling :
>= 8 km
>= 3000ft
5 to 8 km
1000 to 3000 ft
1500m to 5 km
500 to 1000 ft
800 to 1500m
200 to 500 ft
< 800m
< 200 ft
Symbols :   Thunderstorms  Fog  Heavy snow  Heavy precipitations  Wind > 20 kt






- Airport Elevation : 1009 ft
- IATA code : DAY


KDAY - James M Cox Dayton International

CURRENT METAR :
  • 282156Z 28008KT 10SM FEW050 SCT070 BKN090 23/11 A2996 RMK AO2 SLP139 T02280111

EXPIRED METARs :
  • 282056Z 29015KT 10SM FEW050 SCT085 23/11 A2996 RMK AO2 SLP138 T02330111 55005
  • 281956Z 28015G23KT 10SM FEW045 SCT090 23/12 A2996 RMK AO2 SLP138 T02330117
  • 281856Z 30011KT 10SM SCT065 BKN090 22/12 A2997 RMK AO2 SLP144 T02170117
  • 281756Z 26018G24KT 10SM SCT055 BKN075 BKN095 22/11 A2997 RMK AO2 SLP143 T02170106 10228 20172 53009

TAF KDAY
Valid from the 28 at 18:00 until the 29 at 18:00 UTC


281734Z 2818/2918 29013G23KT P6SM BKN045
FM282300 30007KT P6SM SCT090
FM290600 28004KT P6SM VCSH SCT100
FM291100 29007KT P6SM VCSH BKN025
FM291200 30008KT P6SM BKN015
FM291500 33011KT P6SM BKN025
KZID FIR / North America



MET'MAP, your aeronautical weather chart ! - Copyright ORBIFLY December 2007 - Disclaimer

ORBIFLY MET'MAP TEAM :

Programming & Development : Alexandra Zaïnal
Original concept : Baudouin d'Aumeries
Technical & hardware support : Manuel Goepfert
Assistance : Marc-Olivier Méhu




SOURCES & CREDITS :

   NOAA       Earth
Advisory